Trafford Park, United Kingdom
Current Conditions -  °F | °C
As of 7:50 PM on Thursday 27 Nov 2014 (Local Time) from EGCC Reporting Station
Clear Clear  
Wind Chill: 41°   Ceiling: Unl
Heat Index: 41°   Visibility: 5mi
Dew Point: 41°   Wind: 3mph
Humidity: 100%   Direction: 150°SSE
Pressure: 29.59"   Gusts: NA
Location:  53.47°N, 2.31°W
Report Text: EGCC 271950Z 15003KT 8000 NSC 05/05 Q1002
Loading
Personal Weather Stations






























Interactive Weather Map New forecast layout! Learn more

10-Day Weather Forecast

Advertisements
Track Severe Weather on mobile